Time;durP1;ratioP1;P1;durP2;ratioP2;P2;SDS_P1;SDS_P2;PMS_P1;PMS_P2;Temp;Humidity;BMP_temperature;BMP_pressure;BME280_temperature;BME280_humidity;BME280_pressure;Samples;Min_cycle;Max_cycle;Signal;HPM_P1;HPM_P2
2021/04/10 00:00:59;;;;;;;25.43;22.97;;;8.70;99.90;;;;;;5133569;27;20184;-64
2021/04/10 00:03:24;;;;;;;25.77;22.47;;;8.70;99.90;;;;;;5134062;27;20595;-64
2021/04/10 00:05:50;;;;;;;25.30;22.40;;;8.60;99.90;;;;;;5133832;27;20394;-64
2021/04/10 00:08:16;;;;;;;27.77;25.07;;;8.60;99.90;;;;;;5132890;27;20172;-64
2021/04/10 00:10:41;;;;;;;26.90;24.10;;;8.60;99.90;;;;;;5133888;27;20161;-64
2021/04/10 00:13:07;;;;;;;25.80;23.20;;;8.60;99.90;;;;;;5133756;27;20243;-64
2021/04/10 00:15:33;;;;;;;30.27;24.10;;;8.50;99.90;;;;;;5133675;27;20239;-64
2021/04/10 00:17:58;;;;;;;29.37;26.40;;;8.50;99.90;;;;;;5133724;27;20195;-64
2021/04/10 00:20:25;;;;;;;30.17;27.00;;;8.50;99.90;;;;;;5133635;27;20390;-64
2021/04/10 00:22:51;;;;;;;28.07;25.27;;;8.50;99.90;;;;;;5133800;27;20190;-64
2021/04/10 00:25:18;;;;;;;28.83;25.93;;;8.40;99.90;;;;;;5132752;27;20425;-64
2021/04/10 00:27:43;;;;;;;28.97;25.87;;;8.40;99.90;;;;;;5133742;27;20387;-64
2021/04/10 00:30:12;;;;;;;30.30;27.20;;;8.40;99.90;;;;;;5133649;27;20885;-64
2021/04/10 00:32:37;;;;;;;28.90;26.03;;;8.40;99.90;;;;;;5133723;27;20522;-64
2021/04/10 00:35:04;;;;;;;30.33;27.13;;;8.40;99.90;;;;;;5132346;28;20393;-64
2021/04/10 00:37:30;;;;;;;30.50;27.37;;;8.40;99.90;;;;;;5115676;28;20394;-64
2021/04/10 00:39:55;;;;;;;29.67;26.80;;;8.30;99.90;;;;;;5133488;27;20390;-64
2021/04/10 00:42:21;;;;;;;31.67;28.47;;;8.30;99.90;;;;;;5132531;27;20228;-64
2021/04/10 00:44:47;;;;;;;30.00;27.00;;;8.30;99.90;;;;;;5133568;27;20156;-64
2021/04/10 00:47:12;;;;;;;32.40;29.10;;;8.30;99.90;;;;;;5133242;27;20184;-64
2021/04/10 00:49:38;;;;;;;32.83;29.33;;;8.30;99.90;;;;;;5133337;27;20205;-64
2021/04/10 00:52:06;;;;;;;32.07;28.60;;;8.30;99.90;;;;;;5133680;27;20678;-64
2021/04/10 00:54:32;;;;;;;32.57;27.80;;;8.30;99.90;;;;;;5133600;27;20520;-64
2021/04/10 00:56:57;;;;;;;31.10;27.83;;;8.30;99.90;;;;;;5132408;28;20409;-64
2021/04/10 00:59:23;;;;;;;30.07;27.07;;;8.30;99.90;;;;;;5132444;27;20422;-64
2021/04/10 01:01:49;;;;;;;29.70;26.60;;;8.20;99.90;;;;;;5133062;27;20209;-64
2021/04/10 01:04:15;;;;;;;33.73;30.00;;;8.30;99.90;;;;;;5133199;27;20244;-64
2021/04/10 01:06:40;;;;;;;36.77;32.53;;;8.30;99.90;;;;;;5133409;27;20426;-64
2021/04/10 01:09:07;;;;;;;36.13;32.43;;;8.30;99.90;;;;;;5134195;27;20216;-64
2021/04/10 01:14:28;;;;;;;36.40;31.90;;;8.30;99.90;;;;;;5110778;27;20504;-64
2021/04/10 01:16:59;;;;;;;35.70;31.90;;;8.30;99.90;;;;;;5099888;28;20411;-64
2021/04/10 01:27:37;;;;;;;38.83;34.80;;;8.40;99.90;;;;;;5090346;27;20510;-64
2021/04/10 01:35:22;;;;;;;40.70;34.20;;;8.40;99.90;;;;;;5090461;28;20509;-65
2021/04/10 01:37:53;;;;;;;39.13;33.77;;;8.40;99.90;;;;;;5072542;28;20423;-65
2021/04/10 01:40:21;;;;;;;38.97;34.87;;;8.40;99.90;;;;;;5090532;28;20886;-65
2021/04/10 01:42:48;;;;;;;33.67;30.13;;;8.40;99.90;;;;;;5090053;28;20409;-65
2021/04/10 01:45:15;;;;;;;35.13;31.43;;;8.40;99.90;;;;;;5090128;28;20479;-65
2021/04/10 01:47:43;;;;;;;39.17;35.17;;;8.40;99.90;;;;;;5090130;28;20483;-65
2021/04/10 01:50:09;;;;;;;41.47;37.17;;;8.40;99.90;;;;;;5085658;28;20500;-65
2021/04/10 01:52:35;;;;;;;45.07;37.57;;;8.40;99.90;;;;;;5070227;28;20421;-65
2021/04/10 01:55:03;;;;;;;42.53;35.10;;;8.40;99.90;;;;;;5069820;28;20188;-65
2021/04/10 01:57:29;;;;;;;45.57;38.10;;;8.40;99.90;;;;;;5069849;28;20399;-65
2021/04/10 01:59:58;;;;;;;38.13;32.77;;;8.40;99.90;;;;;;5069881;28;20393;-65
2021/04/10 02:02:24;;;;;;;43.07;36.30;;;8.40;99.90;;;;;;5069669;28;20400;-65
2021/04/10 02:04:51;;;;;;;40.97;36.37;;;8.40;99.90;;;;;;5068535;28;20407;-65
2021/04/10 02:07:22;;;;;;;38.33;34.47;;;8.40;99.90;;;;;;5070283;28;20983;-65
2021/04/10 02:09:49;;;;;;;37.80;33.87;;;8.50;99.90;;;;;;5069303;28;20554;-65
2021/04/10 02:12:19;;;;;;;37.83;33.77;;;8.50;99.90;;;;;;5069355;28;20906;-65
2021/04/10 02:14:45;;;;;;;39.40;35.10;;;8.50;99.90;;;;;;5069330;28;20445;-65
2021/04/10 02:17:17;;;;;;;38.10;33.90;;;8.50;99.90;;;;;;5069397;28;20395;-65
2021/04/10 02:19:43;;;;;;;40.60;35.63;;;8.50;99.90;;;;;;5068259;28;20870;-65
2021/04/10 02:22:10;;;;;;;37.93;33.83;;;8.40;99.90;;;;;;5069297;28;20905;-65
2021/04/10 02:24:35;;;;;;;37.63;33.73;;;8.40;99.90;;;;;;5077271;28;20418;-65
2021/04/10 02:27:01;;;;;;;38.63;34.57;;;8.40;99.90;;;;;;5089305;28;20475;-65
2021/04/10 02:29:27;;;;;;;37.00;33.10;;;8.40;99.90;;;;;;5089395;28;20169;-65
2021/04/10 02:32:00;;;;;;;38.40;34.20;;;8.40;99.90;;;;;;5089519;28;20382;-65
2021/04/10 02:34:31;;;;;;;37.50;33.67;;;8.40;99.90;;;;;;5089081;28;20208;-65
2021/04/10 02:36:59;;;;;;;40.57;35.43;;;8.40;99.90;;;;;;5089266;28;20449;-65
2021/04/10 02:39:27;;;;;;;36.33;32.43;;;8.40;99.90;;;;;;5087853;28;20703;-65
2021/04/10 02:41:58;;;;;;;40.17;35.10;;;8.40;99.90;;;;;;5088294;28;20414;-65
2021/04/10 02:44:30;;;;;;;40.37;34.43;;;8.40;99.90;;;;;;5087786;28;20821;-65
2021/04/10 02:47:00;;;;;;;40.03;35.93;;;8.40;99.90;;;;;;5075031;28;20468;-65
2021/04/10 02:49:29;;;;;;;42.63;35.50;;;8.40;99.90;;;;;;5074372;28;20401;-65
2021/04/10 02:51:57;;;;;;;38.57;34.47;;;8.50;99.90;;;;;;5075931;28;20442;-66
2021/04/10 02:54:27;;;;;;;39.17;35.23;;;8.50;99.90;;;;;;5057754;28;20830;-66
2021/04/10 02:57:02;;;;;;;39.30;35.23;;;8.40;99.90;;;;;;5075968;28;20389;-66
2021/04/10 02:59:29;;;;;;;41.70;34.80;;;8.40;99.90;;;;;;5074376;28;20411;-66
2021/04/10 03:01:58;;;;;;;41.93;36.77;;;8.40;99.90;;;;;;5075340;28;20431;-66
2021/04/10 03:04:24;;;;;;;37.43;33.43;;;8.40;99.90;;;;;;5073983;28;20496;-66
2021/04/10 03:06:50;;;;;;;38.63;34.50;;;8.50;99.90;;;;;;5075260;28;20397;-66
2021/04/10 03:09:16;;;;;;;41.30;36.27;;;8.50;99.90;;;;;;5075131;28;20403;-66
2021/04/10 03:11:41;;;;;;;38.37;34.37;;;8.40;99.90;;;;;;5065660;28;20413;-66
2021/04/10 03:14:08;;;;;;;39.47;35.47;;;8.40;99.90;;;;;;5055097;28;20441;-66
2021/04/10 03:16:35;;;;;;;40.37;36.27;;;8.40;99.90;;;;;;5055659;28;20409;-66
2021/04/10 03:19:02;;;;;;;41.37;36.87;;;8.40;99.90;;;;;;5054989;28;20428;-66
2021/04/10 03:21:28;;;;;;;42.73;38.03;;;8.40;99.90;;;;;;5054924;28;20879;-66
2021/04/10 03:23:54;;;;;;;40.63;36.37;;;8.40;99.90;;;;;;5054843;28;20409;-66
2021/04/10 03:26:20;;;;;;;40.90;36.50;;;8.30;99.90;;;;;;5054995;28;20178;-66
2021/04/10 03:28:48;;;;;;;45.50;37.00;;;8.30;99.90;;;;;;5054800;28;20191;-66
2021/04/10 03:31:14;;;;;;;44.50;39.70;;;8.30;99.90;;;;;;5054801;28;20451;-66
2021/04/10 03:33:40;;;;;;;42.43;38.00;;;8.30;99.90;;;;;;5055127;28;20496;-66
2021/04/10 03:36:06;;;;;;;42.43;38.00;;;8.30;99.90;;;;;;5054728;28;20433;-66
2021/04/10 03:38:32;;;;;;;42.53;37.90;;;8.30;99.90;;;;;;5054712;28;20612;-66
2021/04/10 03:40:59;;;;;;;46.57;38.93;;;8.30;99.90;;;;;;5054550;28;20404;-66
2021/04/10 03:43:25;;;;;;;45.13;39.97;;;8.30;99.90;;;;;;5054683;28;20822;-66
2021/04/10 03:45:51;;;;;;;42.77;38.23;;;8.30;99.90;;;;;;5054379;28;20461;-66
2021/04/10 03:48:17;;;;;;;47.50;38.20;;;8.30;99.90;;;;;;5053290;28;20158;-66
2021/04/10 03:50:43;;;;;;;47.17;40.87;;;8.30;99.90;;;;;;5053713;28;20414;-66
2021/04/10 03:53:08;;;;;;;50.57;41.33;;;8.30;99.90;;;;;;5054235;28;20405;-66
2021/04/10 03:55:34;;;;;;;46.90;39.67;;;8.30;99.90;;;;;;5054406;28;20609;-66
2021/04/10 03:58:01;;;;;;;43.63;38.93;;;8.30;99.90;;;;;;5053180;28;20195;-66
2021/04/10 04:00:27;;;;;;;44.93;39.80;;;8.30;99.90;;;;;;5054477;28;20172;-66
2021/04/10 04:02:53;;;;;;;43.00;38.50;;;8.30;99.90;;;;;;5054421;28;20394;-66
2021/04/10 04:05:19;;;;;;;44.30;39.17;;;8.30;99.90;;;;;;5054061;28;20394;-66
2021/04/10 04:07:44;;;;;;;46.23;40.00;;;8.30;99.90;;;;;;5054497;28;20647;-66
2021/04/10 04:10:10;;;;;;;46.50;41.60;;;8.30;99.90;;;;;;5054218;28;20187;-66
2021/04/10 04:12:36;;;;;;;44.10;38.80;;;8.30;99.90;;;;;;5053748;28;20183;-66
2021/04/10 04:15:03;;;;;;;45.87;38.70;;;8.30;99.90;;;;;;5053866;28;20434;-66
2021/04/10 04:17:28;;;;;;;44.53;39.83;;;8.30;99.90;;;;;;5054000;28;20156;-66
2021/04/10 04:19:54;;;;;;;49.67;40.77;;;8.40;99.90;;;;;;5053834;28;20476;-66
2021/04/10 04:22:19;;;;;;;47.63;42.43;;;8.40;99.90;;;;;;5052825;28;20235;-66
2021/04/10 04:24:45;;;;;;;51.07;40.50;;;8.40;99.90;;;;;;5071339;28;20178;-66
2021/04/10 04:27:10;;;;;;;50.00;39.77;;;8.40;99.90;;;;;;5073679;28;20166;-66
2021/04/10 04:29:36;;;;;;;47.77;41.50;;;8.40;99.90;;;;;;5073539;28;20163;-66
2021/04/10 04:32:02;;;;;;;52.50;41.80;;;8.40;99.90;;;;;;5073630;28;20520;-66
2021/04/10 04:34:27;;;;;;;48.00;41.03;;;8.30;99.90;;;;;;5073303;28;20675;-66
2021/04/10 04:36:53;;;;;;;47.90;41.10;;;8.30;99.90;;;;;;5073580;28;20173;-66
2021/04/10 04:39:18;;;;;;;50.27;42.37;;;8.30;99.90;;;;;;5073516;28;20158;-66
2021/04/10 04:41:44;;;;;;;46.07;41.17;;;8.30;99.90;;;;;;5072565;28;20298;-66
2021/04/10 04:44:09;;;;;;;51.23;44.47;;;8.30;99.90;;;;;;5073393;28;20248;-66
2021/04/10 04:46:35;;;;;;;50.30;43.00;;;8.30;99.90;;;;;;5073477;28;20734;-66
2021/04/10 04:49:01;;;;;;;55.03;42.37;;;8.30;99.90;;;;;;5073498;28;20185;-66
2021/04/10 04:51:26;;;;;;;50.33;41.67;;;8.30;99.90;;;;;;5073141;28;20523;-66
2021/04/10 04:53:52;;;;;;;49.67;41.30;;;8.30;99.90;;;;;;5072049;28;20187;-66
2021/04/10 04:56:17;;;;;;;49.43;41.40;;;8.30;99.90;;;;;;5073128;28;20558;-66
2021/04/10 04:58:43;;;;;;;49.53;43.40;;;8.30;99.90;;;;;;5072278;28;20178;-66
2021/04/10 05:01:08;;;;;;;52.37;43.03;;;8.30;99.90;;;;;;5073211;28;20493;-66
2021/04/10 05:03:34;;;;;;;48.60;41.27;;;8.20;99.90;;;;;;5073384;28;20212;-66
2021/04/10 05:06:00;;;;;;;46.63;39.47;;;8.30;99.90;;;;;;5073221;28;20595;-66
2021/04/10 05:08:25;;;;;;;48.03;38.40;;;8.30;99.90;;;;;;5073260;28;20166;-66
2021/04/10 05:10:51;;;;;;;47.30;42.10;;;8.30;99.90;;;;;;5070628;28;20159;-66
2021/04/10 05:13:16;;;;;;;47.07;40.10;;;8.30;99.90;;;;;;5053144;28;20150;-66
2021/04/10 05:15:42;;;;;;;54.03;40.73;;;8.30;99.90;;;;;;5053752;28;20182;-66
2021/04/10 05:18:07;;;;;;;49.00;41.33;;;8.30;99.90;;;;;;5053049;28;20156;-66
2021/04/10 05:20:33;;;;;;;49.90;39.80;;;8.30;99.90;;;;;;5052923;28;20179;-66
2021/04/10 05:22:58;;;;;;;53.90;44.20;;;8.30;99.90;;;;;;5053136;28;20191;-66
2021/04/10 05:25:24;;;;;;;47.90;40.83;;;8.30;99.90;;;;;;5052901;28;20166;-66
2021/04/10 05:27:51;;;;;;;53.50;42.57;;;8.30;99.90;;;;;;5053156;28;20632;-66
2021/04/10 05:30:17;;;;;;;53.83;40.57;;;8.20;99.90;;;;;;5053053;28;20190;-66
2021/04/10 05:32:43;;;;;;;52.63;41.67;;;8.20;99.90;;;;;;5053316;28;20420;-66
2021/04/10 05:35:09;;;;;;;56.00;42.20;;;8.20;99.90;;;;;;5051483;28;20465;-66
2021/04/10 05:37:35;;;;;;;53.73;42.33;;;8.10;99.90;;;;;;5052725;28;20394;-66
2021/04/10 05:40:02;;;;;;;55.20;42.70;;;8.20;99.90;;;;;;5053100;28;20401;-66
2021/04/10 05:42:29;;;;;;;52.63;41.70;;;8.20;99.90;;;;;;5052989;28;20406;-66
2021/04/10 05:44:55;;;;;;;53.37;40.30;;;8.20;99.90;;;;;;5052837;28;20401;-66
2021/04/10 05:47:20;;;;;;;54.17;44.47;;;8.30;99.90;;;;;;5052695;28;20563;-66
2021/04/10 05:49:46;;;;;;;55.20;42.50;;;8.30;99.90;;;;;;5053111;28;20504;-66
2021/04/10 05:52:12;;;;;;;53.17;41.20;;;8.30;99.90;;;;;;5052568;28;20246;-65
2021/04/10 05:54:37;;;;;;;51.40;41.60;;;8.30;99.90;;;;;;5052472;28;20210;-65
2021/04/10 05:57:03;;;;;;;49.90;40.10;;;8.40;99.90;;;;;;5052901;28;20167;-65
2021/04/10 05:59:28;;;;;;;56.50;40.70;;;8.40;99.90;;;;;;5052534;28;20304;-66
2021/04/10 06:01:54;;;;;;;53.90;39.30;;;8.40;99.90;;;;;;5052375;28;20174;-65
2021/04/10 06:04:19;;;;;;;55.93;38.63;;;8.40;99.90;;;;;;5052722;28;20182;-65
2021/04/10 06:06:45;;;;;;;50.93;40.10;;;8.40;99.90;;;;;;5053308;28;20191;-66
2021/04/10 06:09:10;;;;;;;51.80;40.50;;;8.40;99.90;;;;;;5052592;28;20186;-65
2021/04/10 06:11:36;;;;;;;53.37;38.97;;;8.50;99.90;;;;;;5052757;28;20175;-65
2021/04/10 06:14:02;;;;;;;56.60;39.37;;;8.50;99.90;;;;;;5052245;28;20183;-67
2021/04/10 06:16:28;;;;;;;53.17;40.13;;;8.60;99.90;;;;;;5052353;28;20156;-65
2021/04/10 06:18:53;;;;;;;59.23;42.13;;;8.60;99.90;;;;;;5051170;28;20168;-65
2021/04/10 06:21:19;;;;;;;51.80;41.23;;;8.70;99.90;;;;;;5054639;28;20470;-65
2021/04/10 06:23:46;;;;;;;58.90;42.20;;;8.70;99.90;;;;;;5074172;28;20201;-65
2021/04/10 06:26:12;;;;;;;55.63;39.67;;;8.80;99.90;;;;;;5076258;28;20247;-65
2021/04/10 06:28:38;;;;;;;55.03;42.00;;;8.80;99.90;;;;;;5074863;28;20400;-66
2021/04/10 06:31:04;;;;;;;51.87;38.73;;;8.90;99.90;;;;;;5075988;28;20466;-66
2021/04/10 06:33:29;;;;;;;47.87;38.27;;;8.90;99.90;;;;;;5075703;28;20199;-65
2021/04/10 06:35:55;;;;;;;50.93;38.40;;;9.00;99.90;;;;;;5076038;28;20167;-65
2021/04/10 06:38:20;;;;;;;52.70;37.97;;;9.10;99.90;;;;;;5076289;28;20155;-65
2021/04/10 06:40:46;;;;;;;54.67;38.87;;;9.20;99.90;;;;;;5075151;28;20179;-65
2021/04/10 06:43:12;;;;;;;47.43;39.17;;;9.20;99.90;;;;;;5075782;28;20156;-66
2021/04/10 06:45:38;;;;;;;46.80;37.70;;;9.30;99.90;;;;;;5075540;28;20598;-65
2021/04/10 06:48:09;;;;;;;46.63;35.40;;;9.30;99.90;;;;;;5075766;28;20180;-66
2021/04/10 06:50:35;;;;;;;51.27;37.17;;;9.40;99.90;;;;;;5075893;28;20519;-65
2021/04/10 06:53:03;;;;;;;45.17;35.87;;;9.50;99.90;;;;;;5075735;28;20899;-66
2021/04/10 06:55:32;;;;;;;49.73;36.23;;;9.50;99.90;;;;;;5075693;28;20405;-66
2021/04/10 07:00:38;;;;;;;42.70;34.13;;;9.60;99.90;;;;;;5131486;27;20500;-65
2021/04/10 07:03:04;;;;;;;45.27;34.83;;;9.60;99.90;;;;;;5131548;28;20446;-65
2021/04/10 07:05:30;;;;;;;44.13;37.47;;;9.70;99.90;;;;;;5131419;28;20954;-65
2021/04/10 07:07:56;;;;;;;46.83;38.67;;;9.80;99.90;;;;;;5131619;28;20217;-65
2021/04/10 07:10:22;;;;;;;43.83;35.03;;;9.90;99.90;;;;;;5131231;28;20389;-65
2021/04/10 07:12:48;;;;;;;42.33;34.10;;;10.00;99.90;;;;;;5130330;27;20177;-65
2021/04/10 07:15:15;;;;;;;47.97;35.93;;;10.00;99.90;;;;;;5131221;27;20397;-65
2021/04/10 07:17:41;;;;;;;47.67;32.93;;;10.10;99.90;;;;;;5131450;27;20246;-65
2021/04/10 07:20:29;;;;;;;40.77;34.33;;;10.20;99.90;;;;;;5131067;28;20976;-65
2021/04/10 07:23:12;;;;;;;42.70;34.10;;;10.30;99.90;;;;;;5130447;28;20394;-65
2021/04/10 07:25:40;;;;;;;42.03;33.30;;;10.40;99.90;;;;;;5131035;27;20397;-65
2021/04/10 07:31:03;;;;;;;40.60;31.87;;;10.50;99.90;;;;;;5119933;27;20918;-66
2021/04/10 07:33:31;;;;;;;36.20;31.03;;;10.80;99.90;;;;;;5109621;28;20393;-65
2021/04/10 07:35:57;;;;;;;40.47;32.17;;;10.90;99.90;;;;;;5110915;28;20796;-66
2021/04/10 07:38:26;;;;;;;39.03;32.87;;;10.90;99.90;;;;;;5110772;28;20388;-66
2021/04/10 07:40:52;;;;;;;37.37;31.33;;;11.00;99.90;;;;;;5110713;28;20387;-66
2021/04/10 07:43:27;;;;;;;39.30;32.10;;;10.90;99.90;;;;;;5110612;28;20419;-66
2021/04/10 07:46:11;;;;;;;41.50;31.30;;;10.90;99.90;;;;;;5110672;28;20739;-66
2021/04/10 07:48:37;;;;;;;37.97;32.30;;;10.80;99.90;;;;;;5110427;28;20467;-66
2021/04/10 07:51:03;;;;;;;35.23;29.57;;;10.80;99.90;;;;;;5110652;28;20393;-66
2021/04/10 07:53:29;;;;;;;37.20;31.00;;;10.80;99.90;;;;;;5110552;28;20408;-66
2021/04/10 07:55:57;;;;;;;33.40;26.83;;;10.80;99.90;;;;;;5110460;28;20159;-66
2021/04/10 08:06:13;;;;;;;38.13;31.47;;;10.60;99.90;;;;;;5131467;27;20510;-65
2021/04/10 08:08:49;;;;;;;38.70;30.43;;;10.80;99.90;;;;;;5131370;27;20446;-65
2021/04/10 08:11:14;;;;;;;38.37;30.90;;;11.00;99.90;;;;;;5131485;27;20412;-65
2021/04/10 08:14:03;;;;;;;32.97;28.77;;;11.20;99.90;;;;;;5131194;28;20383;-65
2021/04/10 08:16:28;;;;;;;36.30;31.20;;;11.30;99.90;;;;;;5130207;28;20375;-65
2021/04/10 08:29:42;;;;;;;39.00;31.40;;;11.20;99.90;;;;;;5110985;27;20512;-66
2021/04/10 08:32:09;;;;;;;38.30;31.50;;;11.10;99.90;;;;;;5111055;28;20390;-66
2021/04/10 08:34:35;;;;;;;36.40;32.40;;;11.00;99.90;;;;;;5110779;28;20387;-66
2021/04/10 08:37:03;;;;;;;37.53;30.87;;;10.90;99.90;;;;;;5110680;28;20713;-65
2021/04/10 08:39:33;;;;;;;33.53;28.57;;;11.00;99.90;;;;;;5094922;28;20407;-66
2021/04/10 08:42:01;;;;;;;33.37;29.70;;;11.00;99.90;;;;;;5090323;28;20400;-66
2021/04/10 08:44:30;;;;;;;38.60;32.80;;;11.00;99.90;;;;;;5090459;28;20384;-66
2021/04/10 08:46:56;;;;;;;41.10;32.13;;;11.10;99.90;;;;;;5090302;28;20932;-66
2021/04/10 08:49:24;;;;;;;35.90;31.80;;;11.20;99.90;;;;;;5090166;28;20443;-65
2021/04/10 08:51:56;;;;;;;36.10;30.93;;;11.30;99.90;;;;;;5090263;28;20408;-66
2021/04/10 08:54:23;;;;;;;37.53;30.30;;;11.30;99.90;;;;;;5090059;28;20858;-66
2021/04/10 08:56:50;;;;;;;34.13;30.53;;;11.40;99.90;;;;;;5090635;28;20405;-66
2021/04/10 08:59:19;;;;;;;39.87;32.80;;;11.40;99.90;;;;;;5088856;28;20938;-66
2021/04/10 09:02:05;;;;;;;38.07;33.00;;;11.50;99.90;;;;;;5089929;28;20537;-65
2021/04/10 09:21:44;;;;;;;35.03;28.97;;;12.10;99.90;;;;;;5090597;28;20507;-65
2021/04/10 09:32:42;;;;;;;33.07;29.40;;;12.10;99.90;;;;;;5131505;27;20881;-66
2021/04/10 09:35:19;;;;;;;32.30;28.90;;;12.20;99.90;;;;;;5130374;28;20387;-66
2021/04/10 09:37:48;;;;;;;34.70;30.23;;;12.20;99.90;;;;;;5131268;27;20383;-67
2021/04/10 09:40:18;;;;;;;35.70;31.27;;;12.20;99.90;;;;;;5131480;27;20395;-66
2021/04/10 09:42:46;;;;;;;35.80;31.13;;;12.10;99.90;;;;;;5131530;27;20391;-67
2021/04/10 09:53:26;;;;;;;37.87;31.73;;;12.10;99.90;;;;;;5131321;27;20561;-65
2021/04/10 09:56:10;;;;;;;38.40;34.00;;;11.90;99.90;;;;;;5130419;28;20379;-65
2021/04/10 10:01:16;;;;;;;34.43;30.73;;;11.80;99.90;;;;;;5131377;27;20519;-65
2021/04/10 10:03:43;;;;;;;36.40;31.50;;;11.60;99.90;;;;;;5121910;27;20419;-65
2021/04/10 10:06:21;;;;;;;34.67;30.67;;;11.40;99.90;;;;;;5109489;28;20416;-65
2021/04/10 10:08:47;;;;;;;34.70;31.00;;;11.30;99.90;;;;;;5110661;28;20386;-66
2021/04/10 10:11:14;;;;;;;36.27;32.37;;;11.30;99.90;;;;;;5116799;28;20405;-65
2021/04/10 10:13:39;;;;;;;36.93;32.13;;;11.20;99.90;;;;;;5131286;27;20987;-65
2021/04/10 10:16:06;;;;;;;37.13;31.80;;;11.30;99.90;;;;;;5131013;27;20391;-65
2021/04/10 10:18:34;;;;;;;35.30;31.60;;;11.40;99.90;;;;;;5131147;27;20633;-65
2021/04/10 10:21:06;;;;;;;33.07;29.23;;;11.50;99.90;;;;;;5129917;27;20549;-65
2021/04/10 10:28:45;;;;;;;32.40;28.70;;;11.50;99.90;;;;;;5110903;27;20512;-67
2021/04/10 10:33:50;;;;;;;34.20;29.37;;;11.90;99.90;;;;;;5131500;27;20871;-67
2021/04/10 10:36:18;;;;;;;34.57;28.70;;;11.90;99.90;;;;;;5131358;27;20471;-67
2021/04/10 10:38:46;;;;;;;31.23;27.97;;;12.00;99.90;;;;;;5113031;27;20404;-67
2021/04/10 10:41:14;;;;;;;33.53;29.93;;;12.20;99.90;;;;;;5111021;28;20388;-67
2021/04/10 10:43:41;;;;;;;34.90;30.47;;;12.30;99.90;;;;;;5110715;28;20483;-67
2021/04/10 10:46:08;;;;;;;32.33;28.80;;;12.20;99.90;;;;;;5110670;28;20439;-66
2021/04/10 10:51:14;;;;;;;34.20;30.57;;;12.10;99.90;;;;;;5131511;27;20912;-67
2021/04/10 10:53:42;;;;;;;34.90;30.40;;;11.80;99.90;;;;;;5131049;27;20887;-67
2021/04/10 10:56:11;;;;;;;56.37;47.37;;;11.80;99.90;;;;;;5110902;28;20467;-66
2021/04/10 11:06:41;;;;;;;31.10;27.70;;;11.50;99.90;;;;;;5110863;27;20504;-65
2021/04/10 11:09:09;;;;;;;33.80;28.40;;;11.40;99.90;;;;;;5111184;28;20399;-65
2021/04/10 11:11:38;;;;;;;33.13;27.10;;;11.40;99.90;;;;;;5102261;28;20393;-65
2021/04/10 11:14:05;;;;;;;31.40;27.90;;;11.50;99.90;;;;;;5090299;28;20582;-66
2021/04/10 11:16:31;;;;;;;30.57;26.10;;;11.40;99.90;;;;;;5090397;28;20387;-65
2021/04/10 11:18:58;;;;;;;28.23;25.10;;;11.40;99.90;;;;;;5090156;28;20398;-65
2021/04/10 11:21:28;;;;;;;31.37;26.80;;;11.30;99.90;;;;;;5090561;28;20959;-65
2021/04/10 11:29:30;;;;;;;29.33;26.13;;;11.30;99.90;;;;;;5097393;27;20520;-65
2021/04/10 11:32:17;;;;;;;32.43;27.57;;;11.10;99.90;;;;;;5072632;28;20445;-65
2021/04/10 11:40:01;;;;;;;28.93;23.80;;;11.10;99.90;;;;;;5131401;27;20509;-65
2021/04/10 11:45:08;;;;;;;27.27;23.90;;;11.10;99.90;;;;;;5107284;27;20508;-65
2021/04/10 11:47:36;;;;;;;29.02;24.45;;;11.00;99.90;;;;;;5090488;28;20803;-65
2021/04/10 11:50:21;;;;;;;27.37;24.43;;;11.10;99.90;;;;;;5090576;28;20601;-65
2021/04/10 11:52:48;;;;;;;29.40;25.70;;;11.30;99.90;;;;;;5090521;28;20469;-65
2021/04/10 11:55:17;;;;;;;28.75;24.60;;;11.40;99.90;;;;;;5090253;28;20400;-65
2021/04/10 11:57:44;;;;;;;31.20;25.27;;;11.60;99.90;;;;;;5090591;28;20193;-65
2021/04/10 12:02:47;;;;;;;29.77;26.63;;;11.80;99.90;;;;;;5120937;27;20567;-67
2021/04/10 12:05:26;;;;;;;23.60;21.10;;;11.80;99.90;;;;;;5110959;28;20728;-67
2021/04/10 12:08:27;;;;;;;26.43;23.43;;;11.80;99.90;;;;;;5111034;28;20392;-67
2021/04/10 12:10:56;;;;;;;36.50;32.33;;;11.60;99.90;;;;;;5109884;28;20474;-67
2021/04/10 12:13:24;;;;;;;28.30;24.40;;;11.50;99.90;;;;;;5110732;28;20393;-67
2021/04/10 12:15:53;;;;;;;25.80;23.10;;;11.30;99.90;;;;;;5110774;28;20392;-66
2021/04/10 12:18:20;;;;;;;27.77;24.73;;;11.10;99.90;;;;;;5110960;28;20472;-67
2021/04/10 12:20:47;;;;;;;25.50;22.77;;;11.00;99.90;;;;;;5109127;28;20448;-66
2021/04/10 12:23:13;;;;;;;27.07;22.77;;;10.80;99.90;;;;;;5110640;28;20750;-67
2021/04/10 12:25:39;;;;;;;25.63;22.33;;;10.80;99.90;;;;;;5110510;28;20393;-67
2021/04/10 12:28:05;;;;;;;24.43;21.80;;;10.70;99.90;;;;;;5109259;28;20432;-67
2021/04/10 12:30:31;;;;;;;25.27;22.67;;;10.70;99.90;;;;;;5110372;28;20552;-66
2021/04/10 12:32:56;;;;;;;23.03;20.53;;;10.60;99.90;;;;;;5110474;28;20385;-67
2021/04/10 12:35:22;;;;;;;21.87;19.53;;;10.70;99.90;;;;;;5110408;28;20404;-66
2021/04/10 12:37:48;;;;;;;22.23;19.77;;;10.60;99.90;;;;;;5110548;28;20187;-66
2021/04/10 12:40:14;;;;;;;22.37;20.07;;;10.60;99.90;;;;;;5110132;28;20721;-66
2021/04/10 12:42:40;;;;;;;23.23;20.73;;;10.60;99.90;;;;;;5108883;28;20193;-66
2021/04/10 12:45:08;;;;;;;22.80;20.33;;;10.60;99.90;;;;;;5109987;28;20882;-66
2021/04/10 12:47:34;;;;;;;24.50;21.90;;;10.60;99.90;;;;;;5110125;28;20151;-67
2021/04/10 12:50:00;;;;;;;21.70;19.40;;;10.60;99.90;;;;;;5110193;28;20427;-67
2021/04/10 12:52:26;;;;;;;22.33;20.03;;;10.70;99.90;;;;;;5110103;28;20407;-67
2021/04/10 12:54:52;;;;;;;23.13;19.93;;;10.70;99.90;;;;;;5110040;28;20189;-67
2021/04/10 12:57:17;;;;;;;24.33;20.60;;;10.80;99.90;;;;;;5109877;28;20870;-66
2021/04/10 12:59:43;;;;;;;21.13;18.63;;;10.90;99.90;;;;;;5110072;28;20159;-67
2021/04/10 13:02:09;;;;;;;20.47;18.47;;;11.00;99.90;;;;;;5109759;28;20271;-67
2021/04/10 13:04:35;;;;;;;21.10;18.90;;;10.90;99.90;;;;;;5110136;28;20155;-67
2021/04/10 13:07:01;;;;;;;22.77;20.37;;;10.90;99.90;;;;;;5109750;28;20637;-66
2021/04/10 13:09:27;;;;;;;24.33;19.60;;;10.90;99.90;;;;;;5109789;28;20162;-67
2021/04/10 13:11:55;;;;;;;21.67;19.47;;;10.90;99.90;;;;;;5109081;28;20448;-66
2021/04/10 13:14:22;;;;;;;22.43;20.13;;;11.00;99.90;;;;;;5095476;28;20407;-66
2021/04/10 13:16:48;;;;;;;22.90;19.63;;;11.00;99.90;;;;;;5096249;28;20901;-67
2021/04/10 13:19:14;;;;;;;22.37;20.07;;;11.00;99.90;;;;;;5096217;28;20404;-67
2021/04/10 13:21:40;;;;;;;19.87;17.77;;;10.90;99.90;;;;;;5095839;28;20534;-67
2021/04/10 13:24:06;;;;;;;20.80;18.67;;;10.80;99.90;;;;;;5095888;28;20605;-67
2021/04/10 13:26:32;;;;;;;21.27;19.13;;;10.70;99.90;;;;;;5094899;28;20433;-67
2021/04/10 13:28:58;;;;;;;24.77;19.40;;;10.60;99.90;;;;;;5095895;28;20436;-66
2021/04/10 13:31:23;;;;;;;22.63;19.60;;;10.60;99.90;;;;;;5095992;28;20168;-67
2021/04/10 13:33:49;;;;;;;21.10;19.00;;;10.60;99.90;;;;;;5095862;28;20242;-66
2021/04/10 13:36:14;;;;;;;22.80;20.60;;;10.50;99.90;;;;;;5111531;28;20159;-66
2021/04/10 13:38:40;;;;;;;24.83;22.10;;;10.50;99.90;;;;;;5095514;28;20163;-67
2021/04/10 13:41:06;;;;;;;22.83;20.47;;;10.50;99.90;;;;;;5095442;28;20191;-67
2021/04/10 13:43:32;;;;;;;25.67;22.97;;;10.40;99.90;;;;;;5095551;28;20144;-67
2021/04/10 13:45:58;;;;;;;24.53;22.00;;;10.30;99.90;;;;;;5095006;28;20453;-66
2021/04/10 13:48:24;;;;;;;23.03;20.63;;;10.30;99.90;;;;;;5095349;28;20446;-66
2021/04/10 13:50:51;;;;;;;24.07;21.67;;;10.30;99.90;;;;;;5095327;28;20792;-66
2021/04/10 13:53:18;;;;;;;23.55;21.05;;;10.30;99.90;;;;;;5094129;28;20159;-66
2021/04/10 13:55:44;;;;;;;25.95;21.67;;;10.40;99.90;;;;;;5095110;28;20161;-66
2021/04/10 13:58:10;;;;;;;22.43;20.23;;;10.50;99.90;;;;;;5095405;28;20397;-67
2021/04/10 14:00:37;;;;;;;26.17;23.23;;;10.60;99.90;;;;;;5094815;28;20759;-67
2021/04/10 14:03:04;;;;;;;23.60;21.10;;;10.60;99.90;;;;;;5075021;28;20903;-67
2021/04/10 14:05:30;;;;;;;24.87;22.33;;;10.60;99.90;;;;;;5074859;28;20386;-67
2021/04/10 14:07:56;;;;;;;23.70;21.20;;;10.70;99.90;;;;;;5074666;28;20418;-66
2021/04/10 14:10:23;;;;;;;25.83;23.03;;;10.70;99.90;;;;;;5081494;28;20494;-67
2021/04/10 14:12:50;;;;;;;26.10;23.40;;;10.80;99.90;;;;;;5095269;28;20179;-67
2021/04/10 14:15:20;;;;;;;24.80;22.30;;;10.80;99.90;;;;;;5095090;28;20833;-66
2021/04/10 14:17:46;;;;;;;24.90;22.40;;;10.80;99.90;;;;;;5094610;28;20205;-66
2021/04/10 14:20:15;;;;;;;26.20;21.80;;;10.70;99.90;;;;;;5094629;28;20398;-67
2021/04/10 14:22:41;;;;;;;23.70;21.40;;;10.60;99.90;;;;;;5093453;28;20296;-66
2021/04/10 14:25:09;;;;;;;25.13;22.60;;;10.60;99.90;;;;;;5093743;28;20426;-67